Time;durP1;ratioP1;P1;durP2;ratioP2;P2;SDS_P1;SDS_P2;PMS_P1;PMS_P2;Temp;Humidity;BMP_temperature;BMP_pressure;BME280_temperature;BME280_humidity;BME280_pressure;Samples;Min_cycle;Max_cycle;Signal;HPM_P1;HPM_P2
2021/12/25 00:00:13;;;;;;;36.42;16.80;;;;;;;3.75;87.89;100655.31;4969627;28;20101;-63
2021/12/25 00:02:38;;;;;;;27.88;14.30;;;;;;;3.71;87.80;100657.09;4973608;28;20401;-64
2021/12/25 00:05:05;;;;;;;36.90;16.50;;;;;;;3.67;87.90;100655.38;4970113;28;20033;-63
2021/12/25 00:07:30;;;;;;;35.75;17.67;;;;;;;3.55;88.25;100664.16;4986607;28;20464;-64
2021/12/25 00:09:57;;;;;;;41.90;18.88;;;;;;;3.54;88.42;100665.91;4986621;28;20042;-62
2021/12/25 00:12:23;;;;;;;37.50;19.33;;;;;;;3.47;88.65;100666.84;4968339;28;20042;-62
2021/12/25 00:14:49;;;;;;;38.72;19.13;;;;;;;3.47;88.58;100664.22;4982103;28;20030;-63
2021/12/25 00:17:14;;;;;;;39.88;19.70;;;;;;;3.38;88.72;100672.09;4987356;28;20033;-64
2021/12/25 00:19:39;;;;;;;43.00;19.98;;;;;;;3.35;88.93;100667.78;4977050;28;20022;-64
2021/12/25 00:22:05;;;;;;;46.38;19.67;;;;;;;3.33;89.03;100668.66;4978624;28;20213;-64
2021/12/25 00:24:30;;;;;;;48.15;21.15;;;;;;;3.30;89.15;100669.53;4980545;28;20030;-64
2021/12/25 00:27:20;;;;;;;48.55;22.15;;;;;;;3.31;89.13;100670.41;4986813;28;20018;-64
2021/12/25 00:32:34;;;;;;;52.17;21.05;;;;;;;3.17;89.67;100666.16;4987149;28;20030;-64
2021/12/25 00:34:59;;;;;;;46.22;22.48;;;;;;;3.18;89.58;100680.88;4985806;28;20051;-63
2021/12/25 00:37:26;;;;;;;50.50;21.23;;;;;;;3.21;89.18;100675.66;4985109;28;20030;-63
2021/12/25 00:39:51;;;;;;;41.13;19.23;;;;;;;3.19;89.67;100676.56;4985892;28;20038;-65
2021/12/25 00:42:16;;;;;;;62.22;25.25;;;;;;;3.10;89.79;100680.09;4968471;28;20049;-65
2021/12/25 00:44:42;;;;;;;64.50;24.75;;;;;;;3.06;90.18;100679.22;4987297;28;20077;-63
2021/12/25 00:47:07;;;;;;;53.05;23.05;;;;;;;3.12;90.08;100679.19;4985266;28;20381;-63
2021/12/25 00:49:32;;;;;;;49.70;21.35;;;;;;;3.22;89.60;100677.38;4963641;28;20043;-65
2021/12/25 00:51:58;;;;;;;40.83;20.10;;;;;;;3.31;88.89;100678.22;4959624;28;20447;-63
2021/12/25 00:54:23;;;;;;;39.72;19.40;;;;;;;3.25;88.89;100681.75;4986740;28;20026;-64
2021/12/25 00:56:49;;;;;;;42.65;20.65;;;;;;;3.25;89.04;100676.53;4986916;28;20312;-63
2021/12/25 00:59:14;;;;;;;39.45;20.35;;;;;;;3.25;88.81;100684.34;4980465;28;20101;-64
2021/12/25 01:01:40;;;;;;;43.03;20.90;;;;;;;3.22;89.17;100676.53;4966870;28;20126;-63
2021/12/25 01:04:06;;;;;;;38.78;19.83;;;;;;;3.26;88.71;100679.13;4977032;28;20110;-63
2021/12/25 01:06:31;;;;;;;40.50;17.85;;;;;;;3.32;88.24;100677.34;4985767;28;20023;-64
2021/12/25 01:08:57;;;;;;;34.15;18.20;;;;;;;3.25;88.79;100679.13;4994515;28;20078;-64
2021/12/25 01:11:25;;;;;;;42.50;18.33;;;;;;;3.20;88.36;100680.88;4994157;28;20065;-64
2021/12/25 01:13:57;;;;;;;43.35;19.92;;;;;;;3.16;88.50;100678.28;4990879;28;20508;-62
2021/12/25 01:16:58;;;;;;;34.28;17.75;;;;;;;3.16;88.78;100678.28;4987868;28;20384;-62
2021/12/25 01:25:16;;;;;;;33.75;16.95;;;;;;;3.14;88.49;100673.97;4984036;28;20520;-62
2021/12/25 01:41:15;;;;;;;30.00;17.02;;;;;;;3.11;87.92;100684.41;4988524;28;20066;-62
2021/12/25 01:49:09;;;;;;;21.17;13.73;;;;;;;3.13;86.81;100674.84;4990686;28;20370;-64
2021/12/25 01:51:34;;;;;;;21.08;14.05;;;;;;;2.93;87.08;100670.63;4990541;28;20481;-62
2021/12/25 01:54:00;;;;;;;22.33;13.18;;;;;;;2.88;87.33;100669.75;4983248;28;20044;-63
2021/12/25 01:56:25;;;;;;;25.05;15.73;;;;;;;2.90;87.69;100671.50;4970681;28;20038;-64
2021/12/25 01:58:52;;;;;;;20.38;12.77;;;;;;;2.95;87.40;100670.59;4970061;28;20121;-63
2021/12/25 02:01:17;;;;;;;25.00;14.75;;;;;;;2.86;87.26;100668.91;4990539;28;20118;-62
2021/12/25 02:03:43;;;;;;;24.67;15.65;;;;;;;2.83;87.52;100674.97;4985997;28;20122;-64
2021/12/25 02:06:11;;;;;;;25.80;15.05;;;;;;;2.70;87.90;100676.78;4984835;28;20035;-64
2021/12/25 02:08:38;;;;;;;26.25;16.25;;;;;;;2.66;87.88;100677.66;4984515;28;20018;-64
2021/12/25 02:11:04;;;;;;;21.17;14.30;;;;;;;2.67;88.04;100676.78;4987838;28;20027;-66
2021/12/25 02:13:30;;;;;;;26.67;16.38;;;;;;;2.59;87.84;100683.75;5022388;22;20041;-63
2021/12/25 02:15:57;;;;;;;28.70;17.75;;;;;;;2.52;87.86;100681.19;5066951;28;20135;-61
2021/12/25 02:21:20;;;;;;;23.17;16.17;;;;;;;2.36;87.91;100677.75;4996952;28;20554;-62
2021/12/25 02:23:48;;;;;;;23.45;15.93;;;;;;;2.41;87.59;100682.94;5068315;28;20028;-64
2021/12/25 02:26:13;;;;;;;28.23;17.10;;;;;;;2.39;87.46;100688.16;5069564;28;20029;-64
2021/12/25 02:28:39;;;;;;;27.50;17.48;;;;;;;2.31;87.80;100683.81;5068661;28;20158;-64
2021/12/25 02:31:08;;;;;;;23.13;15.95;;;;;;;2.26;87.63;100683.84;5068278;28;20036;-63
2021/12/25 02:33:33;;;;;;;21.50;15.20;;;;;;;2.18;87.54;100685.59;5068247;28;20414;-64
2021/12/25 02:35:59;;;;;;;22.38;15.80;;;;;;;2.12;87.78;100681.25;5068884;28;20021;-62
2021/12/25 02:38:25;;;;;;;21.60;13.90;;;;;;;2.16;87.86;100682.13;5068472;28;20085;-64
2021/12/25 02:40:51;;;;;;;21.33;14.55;;;;;;;2.17;87.28;100687.34;5067170;28;20035;-64
2021/12/25 02:43:17;;;;;;;20.92;14.15;;;;;;;2.08;87.51;100693.38;5067250;28;20024;-62
2021/12/25 02:45:42;;;;;;;25.42;15.02;;;;;;;2.07;87.53;100696.84;5068548;28;20536;-63
2021/12/25 02:48:10;;;;;;;18.50;13.68;;;;;;;2.09;87.34;100697.75;5067803;28;20223;-63
2021/12/25 02:50:38;;;;;;;17.50;12.65;;;;;;;2.17;86.80;100695.13;5068434;28;20024;-63
2021/12/25 02:53:05;;;;;;;16.42;11.93;;;;;;;2.16;86.60;100708.13;5067121;28;20489;-66
2021/12/25 02:55:30;;;;;;;18.30;11.85;;;;;;;2.08;86.43;100703.78;5071283;28;20066;-64
2021/12/25 02:57:56;;;;;;;17.83;12.07;;;;;;;1.97;86.74;100706.41;5088483;28;20893;-62
2021/12/25 03:00:30;;;;;;;15.07;10.38;;;;;;;1.97;86.50;100702.94;5086796;28;20028;-63
2021/12/25 03:02:56;;;;;;;15.88;11.30;;;;;;;2.07;86.39;100704.66;5066195;28;20119;-64
2021/12/25 03:05:22;;;;;;;16.27;11.25;;;;;;;2.07;86.04;100709.84;5068122;28;20154;-64
2021/12/25 03:07:47;;;;;;;16.05;11.38;;;;;;;2.04;86.05;100714.22;5066685;28;20025;-63
2021/12/25 03:10:14;;;;;;;16.85;10.93;;;;;;;2.07;85.54;100716.78;5068156;28;20100;-63
2021/12/25 03:12:53;;;;;;;15.05;10.48;;;;;;;2.04;86.14;100709.00;5066455;28;20455;-62
2021/12/25 03:15:28;;;;;;;17.85;12.07;;;;;;;1.99;86.70;100715.06;5067460;28;20081;-62
2021/12/25 03:17:56;;;;;;;17.05;11.75;;;;;;;2.03;86.41;100718.53;5067640;28;20028;-63
2021/12/25 03:20:21;;;;;;;17.05;10.82;;;;;;;2.12;85.90;100712.47;5067690;28;20159;-63
2021/12/25 03:22:47;;;;;;;16.00;11.32;;;;;;;2.10;85.45;100719.38;5068041;28;20025;-63
2021/12/25 03:25:14;;;;;;;16.25;11.32;;;;;;;2.06;85.48;100722.84;5067569;28;20029;-62
2021/12/25 03:27:41;;;;;;;18.13;12.07;;;;;;;1.94;85.93;100734.13;5068616;28;20509;-62
2021/12/25 03:30:08;;;;;;;19.27;13.52;;;;;;;1.84;86.17;100731.50;5066745;28;20062;-64
2021/12/25 03:32:33;;;;;;;17.75;12.35;;;;;;;1.90;86.13;100738.47;5065975;28;20036;-63
2021/12/25 03:34:58;;;;;;;19.70;13.27;;;;;;;1.86;85.93;100731.50;5066813;28;20115;-64
2021/12/25 03:37:24;;;;;;;19.02;12.32;;;;;;;1.81;86.32;100743.66;5068018;28;20032;-63
2021/12/25 03:39:49;;;;;;;20.13;13.05;;;;;;;1.86;86.63;100744.50;5065818;28;20030;-62
2021/12/25 03:42:15;;;;;;;18.67;12.73;;;;;;;1.87;86.24;100735.88;5063625;28;20312;-62
2021/12/25 03:44:40;;;;;;;17.45;11.50;;;;;;;1.87;86.57;100743.66;5068190;28;20059;-63
2021/12/25 03:47:23;;;;;;;21.02;13.77;;;;;;;1.75;86.61;100739.31;5066546;28;20396;-62
2021/12/25 03:58:05;;;;;;;24.60;15.00;;;;;;;1.74;86.57;100751.44;5066665;28;20434;-63
2021/12/25 04:00:31;;;;;;;26.55;14.63;;;;;;;1.75;86.13;100753.16;5065839;28;20047;-63
2021/12/25 04:03:01;;;;;;;23.50;14.85;;;;;;;1.65;86.21;100761.81;5065778;28;20153;-63
2021/12/25 04:05:30;;;;;;;23.90;14.80;;;;;;;1.60;86.38;100760.94;5066315;28;20041;-64
2021/12/25 04:08:03;;;;;;;21.70;14.55;;;;;;;1.60;86.21;100764.38;5067446;28;20066;-64
2021/12/25 04:10:33;;;;;;;25.55;15.27;;;;;;;1.61;85.90;100763.53;5066543;28;20025;-62
2021/12/25 04:12:59;;;;;;;22.95;13.30;;;;;;;1.60;85.78;100766.13;5066025;28;20481;-63
2021/12/25 04:15:24;;;;;;;25.77;14.48;;;;;;;1.61;85.67;100767.84;5065339;28;20028;-63
2021/12/25 04:17:50;;;;;;;19.50;13.98;;;;;;;1.66;84.88;100771.34;5065935;28;20025;-63
2021/12/25 04:20:16;;;;;;;22.20;13.35;;;;;;;1.51;85.45;100778.22;5064397;28;20032;-61
2021/12/25 04:22:51;;;;;;;25.23;15.60;;;;;;;1.44;85.60;100781.66;5065793;28;20032;-63
2021/12/25 04:25:22;;;;;;;25.08;14.85;;;;;;;1.41;85.89;100780.81;5066226;28;20031;-63
2021/12/25 04:27:48;;;;;;;24.45;15.02;;;;;;;1.50;86.05;100776.50;5065693;28;20060;-62
2021/12/25 04:30:25;;;;;;;25.73;13.80;;;;;;;1.57;85.56;100780.00;5067374;28;20485;-63
2021/12/25 04:42:48;;;;;;;30.17;16.10;;;;;;;1.41;85.95;100794.63;5045770;28;20068;-62
2021/12/25 05:03:07;;;;;;;29.23;15.85;;;;;;;1.30;86.18;100810.19;5066427;28;20047;-62
2021/12/25 05:05:34;;;;;;;34.53;18.63;;;;;;;1.24;86.37;100811.00;5065646;28;20027;-61
2021/12/25 05:07:59;;;;;;;29.40;16.88;;;;;;;1.29;86.30;100817.97;5065437;28;20029;-64
2021/12/25 05:10:24;;;;;;;31.92;18.42;;;;;;;1.23;86.12;100819.66;5066577;28;20013;-64
2021/12/25 05:12:50;;;;;;;32.35;18.27;;;;;;;1.21;86.63;100820.53;5064043;28;20056;-64
2021/12/25 05:15:15;;;;;;;36.67;18.70;;;;;;;1.11;86.55;100817.88;5069609;28;20020;-64
2021/12/25 05:17:41;;;;;;;34.13;18.27;;;;;;;1.12;86.42;100818.75;5069483;28;20736;-63
2021/12/25 05:20:07;;;;;;;33.72;17.83;;;;;;;1.06;86.13;100826.50;5068312;28;20021;-63
2021/12/25 05:22:32;;;;;;;32.92;17.02;;;;;;;1.03;86.41;100826.50;5070295;28;20028;-64
2021/12/25 05:24:57;;;;;;;28.10;16.40;;;;;;;1.05;86.25;100823.03;5069111;28;20429;-63
2021/12/25 05:27:23;;;;;;;31.42;15.70;;;;;;;1.07;86.36;100828.22;5067338;28;20371;-65
2021/12/25 05:29:48;;;;;;;28.92;16.50;;;;;;;1.12;85.93;100821.34;5067522;28;20032;-64
2021/12/25 05:32:15;;;;;;;34.80;16.63;;;;;;;1.04;86.01;100829.09;5069390;28;20032;-62
2021/12/25 05:34:41;;;;;;;34.03;16.45;;;;;;;0.98;86.39;100832.53;5070549;28;20028;-64
2021/12/25 05:37:06;;;;;;;33.75;17.25;;;;;;;0.94;85.96;100837.69;5069154;28;20028;-65
2021/12/25 05:39:32;;;;;;;32.33;17.75;;;;;;;0.90;85.90;100834.19;5069906;28;20029;-63
2021/12/25 05:41:58;;;;;;;29.10;15.82;;;;;;;0.93;86.09;100830.78;5069471;28;20549;-64
2021/12/25 05:44:24;;;;;;;29.25;16.17;;;;;;;0.87;85.96;100842.84;5068689;28;20414;-65
2021/12/25 05:46:49;;;;;;;33.28;17.02;;;;;;;0.85;85.82;100848.88;5068612;28;20028;-64
2021/12/25 05:49:15;;;;;;;30.75;15.73;;;;;;;0.77;85.91;100843.63;5069365;28;20035;-63
2021/12/25 05:51:40;;;;;;;28.85;14.77;;;;;;;0.79;85.93;100846.25;5070242;28;20032;-64
2021/12/25 05:54:05;;;;;;;24.17;13.98;;;;;;;0.73;85.64;100844.47;5068913;28;20021;-64
2021/12/25 05:56:31;;;;;;;22.50;13.38;;;;;;;0.73;85.35;100850.50;5069316;28;20055;-67
2021/12/25 05:58:56;;;;;;;23.17;11.57;;;;;;;0.74;85.12;100852.28;5062260;28;20029;-64
2021/12/25 06:01:21;;;;;;;20.75;12.02;;;;;;;0.72;84.50;100859.16;5068110;28;20020;-63
2021/12/25 06:03:47;;;;;;;25.00;11.35;;;;;;;0.67;84.34;100858.28;5069024;28;20021;-61
2021/12/25 06:06:12;;;;;;;16.70;9.90;;;;;;;0.61;84.25;100863.41;5070064;28;20424;-64
2021/12/25 06:08:37;;;;;;;20.10;10.48;;;;;;;0.60;84.76;100864.28;5068931;28;20035;-63
2021/12/25 06:11:03;;;;;;;18.40;10.35;;;;;;;0.59;84.92;100867.69;5069121;28;20033;-65
2021/12/25 06:13:29;;;;;;;21.50;10.07;;;;;;;0.66;84.63;100873.81;5066937;28;20036;-63
2021/12/25 06:15:56;;;;;;;17.38;10.02;;;;;;;0.58;84.63;100873.75;5066535;28;20123;-63
2021/12/25 06:18:21;;;;;;;20.33;9.93;;;;;;;0.60;84.48;100869.47;5068922;28;20024;-63
2021/12/25 06:20:47;;;;;;;16.55;9.70;;;;;;;0.47;84.46;100873.66;5068323;28;20089;-62
2021/12/25 06:23:12;;;;;;;14.15;8.98;;;;;;;0.46;84.67;100877.13;5068801;28;20483;-63
2021/12/25 06:25:38;;;;;;;17.13;9.27;;;;;;;0.44;84.80;100882.28;5068609;28;20021;-64
2021/12/25 06:28:03;;;;;;;15.20;8.35;;;;;;;0.31;84.96;100888.22;5068165;28;20103;-64
2021/12/25 06:30:29;;;;;;;15.77;8.85;;;;;;;0.26;85.01;100888.16;5067640;28;20475;-64
2021/12/25 06:32:54;;;;;;;13.73;8.57;;;;;;;0.22;84.99;100891.59;5066326;28;20032;-62
2021/12/25 06:35:20;;;;;;;11.73;7.28;;;;;;;0.19;83.52;100894.16;5068970;28;20055;-63
2021/12/25 06:37:46;;;;;;;13.82;6.60;;;;;;;0.13;83.59;100900.13;5068494;28;20024;-64
2021/12/25 06:40:19;;;;;;;12.85;6.53;;;;;;;0.13;83.32;100892.38;5068539;28;20037;-64
2021/12/25 06:42:45;;;;;;;17.40;5.70;;;;;;;0.04;82.80;100894.84;5068347;28;20064;-63
2021/12/25 06:45:11;;;;;;;11.88;6.45;;;;;;;0.02;83.48;100901.72;5068157;28;20020;-64
2021/12/25 06:47:37;;;;;;;9.75;5.43;;;;;;;-0.11;82.58;100892.97;5068211;28;20032;-64
2021/12/25 06:50:03;;;;;;;9.75;4.80;;;;;;;-0.05;82.19;100891.31;5068518;28;20028;-63
2021/12/25 06:52:29;;;;;;;8.10;3.88;;;;;;;-0.13;81.80;100903.31;5067119;28;20493;-63
2021/12/25 06:54:54;;;;;;;5.68;3.80;;;;;;;-0.18;81.57;100905.00;5066870;28;20459;-64
2021/12/25 06:57:19;;;;;;;7.07;3.17;;;;;;;-0.20;81.34;100901.50;5068293;28;20028;-63
2021/12/25 06:59:45;;;;;;;4.38;3.60;;;;;;;-0.35;81.18;100903.06;5067992;28;20032;-64
2021/12/25 07:02:12;;;;;;;4.20;2.75;;;;;;;-0.40;81.05;100912.47;5067788;28;20107;-66
2021/12/25 07:04:37;;;;;;;7.05;3.28;;;;;;;-0.51;81.63;100910.63;5067890;28;20047;-63
2021/12/25 07:07:03;;;;;;;4.32;3.05;;;;;;;-0.61;81.28;100915.69;5067790;28;20432;-63
2021/12/25 07:09:28;;;;;;;3.90;2.85;;;;;;;-0.53;81.49;100914.94;5066291;28;20031;-63
2021/12/25 07:11:53;;;;;;;4.00;2.70;;;;;;;-0.67;80.68;100919.03;5062583;28;20013;-64
2021/12/25 07:14:19;;;;;;;4.97;2.38;;;;;;;-0.80;81.41;100926.63;5067442;28;20102;-62
2021/12/25 07:16:44;;;;;;;2.92;2.40;;;;;;;-0.86;81.17;100925.66;5067212;28;20035;-63
2021/12/25 07:19:12;;;;;;;3.42;2.40;;;;;;;-1.02;81.71;100936.66;5068236;28;20087;-63
2021/12/25 07:21:38;;;;;;;3.50;2.25;;;;;;;-1.13;82.58;100937.31;5068506;28;20106;-62
2021/12/25 07:24:04;;;;;;;4.65;2.53;;;;;;;-1.17;82.12;100939.00;5067904;28;20415;-64
2021/12/25 07:26:30;;;;;;;4.15;2.45;;;;;;;-1.21;82.48;100938.06;5067685;28;20009;-64
2021/12/25 07:28:55;;;;;;;2.83;2.42;;;;;;;-1.31;82.62;100933.59;5067683;28;20051;-63
2021/12/25 07:31:21;;;;;;;2.40;2.20;;;;;;;-1.36;83.09;100940.41;5067270;28;20086;-64
2021/12/25 07:33:46;;;;;;;4.00;2.70;;;;;;;-1.43;83.21;100940.31;5067323;28;20023;-63
2021/12/25 07:36:13;;;;;;;5.47;2.55;;;;;;;-1.44;83.36;100948.03;5067689;28;20141;-64
2021/12/25 07:38:38;;;;;;;4.07;2.10;;;;;;;-1.48;83.59;100947.09;5065292;28;20024;-63
2021/12/25 07:41:04;;;;;;;2.20;1.90;;;;;;;-1.49;82.39;100949.66;5066937;28;20016;-63
2021/12/25 07:43:30;;;;;;;3.90;2.00;;;;;;;-1.59;82.07;100954.69;5067119;28;20079;-62
2021/12/25 07:45:55;;;;;;;3.30;2.30;;;;;;;-1.57;82.17;100952.97;5066802;28;20475;-62
2021/12/25 07:48:24;;;;;;;2.80;1.90;;;;;;;-1.63;81.35;100952.84;5064808;28;20020;-64
2021/12/25 07:50:49;;;;;;;6.10;1.95;;;;;;;-1.70;82.28;100959.63;5060761;28;20028;-63
2021/12/25 07:53:16;;;;;;;5.85;2.70;;;;;;;-1.73;82.78;100966.44;5064356;28;20033;-61
2021/12/25 07:55:47;;;;;;;3.67;2.15;;;;;;;-1.77;83.18;100968.13;5067115;28;20032;-63
2021/12/25 07:58:13;;;;;;;6.65;2.70;;;;;;;-1.76;83.34;100972.44;5067640;28;20432;-63
2021/12/25 08:00:38;;;;;;;5.43;2.40;;;;;;;-1.78;82.92;100980.16;5066585;28;20025;-63
2021/12/25 08:03:04;;;;;;;4.13;2.40;;;;;;;-1.79;82.70;100982.72;5066613;28;20075;-64
2021/12/25 08:05:29;;;;;;;6.03;2.28;;;;;;;-1.79;82.56;100977.53;5049111;28;20066;-63
2021/12/25 08:07:54;;;;;;;3.60;2.05;;;;;;;-1.82;82.36;100986.09;5067347;28;20112;-62
2021/12/25 08:10:21;;;;;;;3.15;2.10;;;;;;;-1.80;81.79;100986.13;5067245;28;20111;-63
2021/12/25 08:12:53;;;;;;;4.00;2.10;;;;;;;-1.87;81.90;100987.72;5067074;28;20367;-63
2021/12/25 08:15:25;;;;;;;4.03;1.90;;;;;;;-1.91;81.81;100984.22;5066188;28;20398;-65
2021/12/25 08:17:52;;;;;;;3.92;2.15;;;;;;;-1.91;81.93;100985.91;5065817;28;20017;-64
2021/12/25 08:20:18;;;;;;;4.00;1.90;;;;;;;-1.92;81.84;100987.63;5058288;28;20060;-64
2021/12/25 08:22:43;;;;;;;4.35;1.70;;;;;;;-1.94;81.52;100989.31;5067015;28;20357;-64
2021/12/25 08:25:11;;;;;;;2.30;1.77;;;;;;;-1.97;81.75;100988.38;5064491;28;20028;-64
2021/12/25 08:27:38;;;;;;;4.82;2.47;;;;;;;-1.95;81.55;101004.78;5055072;28;20028;-66
2021/12/25 08:30:07;;;;;;;4.28;2.03;;;;;;;-1.97;81.63;101001.28;5065310;28;20040;-65
2021/12/25 08:32:32;;;;;;;4.63;2.42;;;;;;;-2.06;81.94;100997.69;5063315;28;20056;-66
2021/12/25 08:34:58;;;;;;;3.28;1.88;;;;;;;-2.10;81.81;101010.50;5059717;28;20337;-64
2021/12/25 08:37:24;;;;;;;3.10;2.00;;;;;;;-2.07;82.00;101014.03;5066994;28;20576;-66
2021/12/25 08:39:51;;;;;;;2.88;2.15;;;;;;;-2.10;81.33;101013.97;5060147;28;20345;-64
2021/12/25 08:42:16;;;;;;;5.18;2.05;;;;;;;-2.11;80.96;101019.94;5066331;28;20028;-65
2021/12/25 08:44:54;;;;;;;7.50;1.92;;;;;;;-2.06;81.01;101020.94;5066026;28;20028;-65
2021/12/25 08:47:20;;;;;;;3.95;1.60;;;;;;;-2.05;80.11;101022.66;5065197;28;20023;-63
2021/12/25 08:49:46;;;;;;;5.38;1.92;;;;;;;-2.05;79.73;101026.94;5060044;28;20056;-62
2021/12/25 08:52:14;;;;;;;2.05;1.75;;;;;;;-2.12;79.40;101028.53;5056712;28;20052;-64
2021/12/25 08:54:40;;;;;;;4.93;1.77;;;;;;;-2.20;79.71;101040.44;5061868;28;20078;-64
2021/12/25 08:57:06;;;;;;;3.17;1.73;;;;;;;-2.18;79.91;101033.56;5054522;28;20052;-65
2021/12/25 08:59:33;;;;;;;9.68;1.95;;;;;;;-2.17;80.08;101035.28;5066829;28;20028;-65
2021/12/25 09:01:59;;;;;;;2.85;1.83;;;;;;;-2.24;78.81;101041.16;5064297;28;20055;-63
2021/12/25 09:04:25;;;;;;;2.17;1.75;;;;;;;-2.25;79.40;101035.16;5066085;28;20380;-63
2021/12/25 09:06:50;;;;;;;5.60;1.77;;;;;;;-2.24;79.32;101046.34;5066809;28;20024;-63
2021/12/25 09:09:16;;;;;;;1.77;1.67;;;;;;;-2.24;79.89;101051.50;5066777;28;20078;-64
2021/12/25 09:11:41;;;;;;;2.42;1.70;;;;;;;-2.20;79.18;101050.75;5066360;28;20044;-64
2021/12/25 09:14:07;;;;;;;7.18;1.60;;;;;;;-2.18;79.03;101047.34;5066012;28;20045;-65
2021/12/25 09:16:33;;;;;;;2.72;1.90;;;;;;;-2.21;78.75;101051.56;5064754;28;20032;-65
2021/12/25 09:18:58;;;;;;;1.77;1.67;;;;;;;-2.21;78.72;101047.28;5066490;28;20493;-63
2021/12/25 09:21:24;;;;;;;3.75;2.10;;;;;;;-2.23;78.92;101055.84;5065367;28;20023;-62
2021/12/25 09:23:50;;;;;;;4.13;1.80;;;;;;;-2.17;78.79;101059.41;5066287;28;20036;-64
2021/12/25 09:26:17;;;;;;;6.53;2.10;;;;;;;-2.27;78.29;101057.47;5065647;28;20029;-65
2021/12/25 09:28:42;;;;;;;3.22;1.90;;;;;;;-2.32;78.85;101049.63;5066718;28;20020;-65
2021/12/25 09:31:08;;;;;;;2.15;1.73;;;;;;;-2.25;79.94;101054.91;5064061;28;20023;-64
2021/12/25 09:33:33;;;;;;;5.10;2.42;;;;;;;-2.26;79.07;101056.63;5064102;28;20059;-65
2021/12/25 09:36:02;;;;;;;2.92;1.88;;;;;;;-2.21;79.11;101054.16;5062135;28;20047;-65
2021/12/25 09:38:28;;;;;;;2.60;1.95;;;;;;;-2.20;79.40;101061.94;5063249;28;20394;-64
2021/12/25 09:40:54;;;;;;;5.25;1.92;;;;;;;-2.10;78.99;101063.03;5064678;28;20047;-63
2021/12/25 09:43:21;;;;;;;3.72;2.20;;;;;;;-2.16;78.90;101065.47;5062525;28;20021;-64
2021/12/25 09:45:46;;;;;;;5.88;2.53;;;;;;;-2.07;78.93;101070.84;5061988;28;20028;-63
2021/12/25 09:48:12;;;;;;;5.03;3.15;;;;;;;-2.12;78.39;101067.28;5061463;28;20106;-65
2021/12/25 09:50:37;;;;;;;3.30;2.40;;;;;;;-2.06;78.33;101059.66;5057600;28;20469;-63
2021/12/25 09:53:08;;;;;;;2.60;2.17;;;;;;;-2.05;78.44;101063.09;5064176;28;20040;-63
2021/12/25 09:55:33;;;;;;;2.75;2.20;;;;;;;-2.05;78.35;101068.25;5063378;28;20036;-63
2021/12/25 09:57:59;;;;;;;3.25;2.00;;;;;;;-2.00;78.82;101068.38;5064448;28;20024;-63
2021/12/25 10:00:26;;;;;;;3.38;2.05;;;;;;;-1.89;77.55;101071.19;5066105;28;20044;-65
2021/12/25 10:02:54;;;;;;;3.10;2.20;;;;;;;-1.88;77.39;101067.75;5068383;28;20063;-63
2021/12/25 10:05:46;;;;;;;2.85;2.15;;;;;;;-1.85;77.30;101071.28;5068618;28;20016;-62
2021/12/25 10:08:14;;;;;;;3.38;1.98;;;;;;;-1.81;77.07;101067.03;5063768;28;20482;-64
2021/12/25 10:10:44;;;;;;;3.07;2.37;;;;;;;-1.86;76.69;101059.22;5067068;28;20064;-64
2021/12/25 10:13:21;;;;;;;;;;;;;;;-1.87;76.99;101072.97;5063962;28;20115;-63
2021/12/25 10:15:47;;;;;;;3.72;1.88;;;;;;;-1.76;77.09;101074.91;5071449;28;20370;-63
2021/12/25 10:18:13;;;;;;;3.25;2.00;;;;;;;-1.76;76.06;101074.91;5068220;28;20028;-63
2021/12/25 10:20:38;;;;;;;5.40;1.92;;;;;;;-1.74;75.57;101073.22;5057112;28;20072;-64
2021/12/25 10:23:12;;;;;;;3.08;1.80;;;;;;;-1.64;75.71;101072.56;5058696;28;21094;-64
2021/12/25 10:25:47;;;;;;;1.88;1.60;;;;;;;-1.62;75.23;101073.50;5061398;28;20062;-60
2021/12/25 10:28:16;;;;;;;3.13;2.05;;;;;;;-1.59;74.91;101070.97;5058498;28;20108;-62
2021/12/25 10:30:54;;;;;;;3.50;2.03;;;;;;;-1.59;75.18;101072.69;5064448;28;20024;-62
2021/12/25 10:33:50;;;;;;;2.03;1.80;;;;;;;-1.62;74.16;101070.91;5067706;28;20036;-61
2021/12/25 10:36:31;;;;;;;2.53;1.45;;;;;;;-1.61;73.58;101079.50;5088324;28;20529;-61
2021/12/25 10:39:01;;;;;;;2.00;1.63;;;;;;;-1.63;73.67;101076.91;5087008;28;20028;-62
2021/12/25 10:41:26;;;;;;;3.42;1.73;;;;;;;-1.58;73.72;101072.72;5087245;28;20028;-63
2021/12/25 10:44:10;;;;;;;1.80;1.70;;;;;;;-1.53;72.98;101068.47;5075251;28;20050;-61
2021/12/25 10:47:08;;;;;;;2.65;1.90;;;;;;;-1.47;72.13;101067.75;5053433;28;20458;-63
2021/12/25 10:49:38;;;;;;;2.37;1.53;;;;;;;-1.53;72.12;101068.47;5051613;28;20040;-64
2021/12/25 10:52:21;;;;;;;2.00;1.40;;;;;;;-1.57;72.67;101070.97;5059479;28;20025;-61
2021/12/25 10:54:50;;;;;;;1.20;1.15;;;;;;;-1.51;71.87;101071.09;5055618;28;20500;-60
2021/12/25 10:57:36;;;;;;;3.25;1.58;;;;;;;-1.49;71.44;101073.72;5070777;28;20025;-63
2021/12/25 11:00:05;;;;;;;2.28;1.77;;;;;;;-1.52;71.34;101079.72;5048303;28;20503;-62
2021/12/25 11:02:34;;;;;;;1.30;1.10;;;;;;;-1.49;71.44;101078.88;5068219;28;20040;-62
2021/12/25 11:05:00;;;;;;;1.00;0.90;;;;;;;-1.50;71.48;101075.44;5065027;28;20483;-63
2021/12/25 11:07:26;;;;;;;1.48;1.27;;;;;;;-1.41;70.80;101072.16;5082646;28;20043;-62
2021/12/25 11:10:15;;;;;;;2.08;1.60;;;;;;;-1.43;70.79;101066.97;5071963;28;20036;-64
2021/12/25 11:12:41;;;;;;;3.88;1.42;;;;;;;-1.40;70.30;101079.06;5047674;28;20074;-64
2021/12/25 11:15:10;;;;;;;1.98;1.70;;;;;;;-1.37;70.17;101073.09;5062982;28;20371;-64
2021/12/25 11:17:38;;;;;;;1.50;1.38;;;;;;;-1.36;70.39;101069.69;5084442;28;20543;-66
2021/12/25 11:20:04;;;;;;;4.57;1.50;;;;;;;-1.29;70.55;101072.38;5060581;28;20050;-66
2021/12/25 11:22:52;;;;;;;2.45;1.30;;;;;;;-1.11;70.04;101072.72;5055562;28;20033;-63
2021/12/25 11:25:20;;;;;;;1.40;1.30;;;;;;;-0.99;69.96;101067.78;5057798;28;20028;-65
2021/12/25 11:27:47;;;;;;;1.30;1.20;;;;;;;-0.92;69.88;101071.31;5057534;28;20017;-64
2021/12/25 11:30:13;;;;;;;2.05;1.20;;;;;;;-0.79;69.82;101068.09;5056855;28;20016;-64
2021/12/25 11:32:39;;;;;;;1.30;1.20;;;;;;;-0.80;68.78;101070.66;5056483;28;20071;-65
2021/12/25 11:35:05;;;;;;;1.50;1.00;;;;;;;-0.68;68.24;101063.13;5057334;28;20037;-64
2021/12/25 11:37:31;;;;;;;1.85;1.10;;;;;;;-0.61;67.74;101064.06;5058404;28;20340;-62
2021/12/25 11:39:56;;;;;;;1.50;1.13;;;;;;;-0.57;67.49;101063.25;5066424;28;20017;-63
2021/12/25 11:42:24;;;;;;;0.75;0.75;;;;;;;-0.59;66.89;101057.22;5086516;28;20077;-63
2021/12/25 11:44:53;;;;;;;1.23;1.13;;;;;;;-0.55;66.51;101059.00;5085597;28;20327;-63
2021/12/25 11:47:37;;;;;;;4.35;1.00;;;;;;;-0.45;65.91;101053.97;5067155;28;20083;-63
2021/12/25 11:50:15;;;;;;;0.98;0.98;;;;;;;-0.44;65.88;101054.00;5065942;28;20028;-63
2021/12/25 11:52:52;;;;;;;1.25;0.77;;;;;;;-0.45;65.37;101048.78;5084550;28;20039;-63
2021/12/25 11:58:04;;;;;;;0.95;0.82;;;;;;;-0.31;64.86;101049.84;5065475;28;20278;-64
2021/12/25 12:00:47;;;;;;;1.45;1.35;;;;;;;-0.19;65.15;101046.56;5063962;28;20275;-63
2021/12/25 12:03:39;;;;;;;1.27;1.08;;;;;;;0.21;63.48;101042.78;5066971;28;20032;-62
2021/12/25 12:06:05;;;;;;;1.55;1.05;;;;;;;0.65;63.82;101051.91;5066658;28;20036;-64
2021/12/25 12:08:53;;;;;;;2.38;1.00;;;;;;;1.41;60.33;101043.06;5066989;28;20013;-62
2021/12/25 12:11:27;;;;;;;2.70;1.02;;;;;;;2.30;58.28;101039.22;5066897;28;20024;-63
2021/12/25 12:14:17;;;;;;;2.03;1.00;;;;;;;3.40;54.71;101035.03;5067525;28;20384;-63
2021/12/25 12:16:51;;;;;;;1.60;1.00;;;;;;;3.68;53.68;101024.56;5068206;28;20032;-62
2021/12/25 12:19:36;;;;;;;1.13;1.00;;;;;;;4.38;51.56;101031.28;5061973;28;20028;-63
2021/12/25 12:26:02;;;;;;;1.08;0.70;;;;;;;3.99;50.28;101018.41;5059224;28;20047;-67
2021/12/25 12:28:13;;;;;;;1.55;0.98;;;;;;;4.55;49.09;101024.22;5048811;28;20175;-65
2021/12/25 12:30:41;;;;;;;1.88;1.20;;;;;;;4.21;49.76;101036.59;5051417;28;20107;-64
2021/12/25 12:33:10;;;;;;;0.73;0.73;;;;;;;4.00;50.97;101033.19;5055945;28;20040;-63
2021/12/25 12:35:40;;;;;;;2.25;0.90;;;;;;;3.86;50.20;101028.00;5055525;28;20475;-64
2021/12/25 12:38:46;;;;;;;1.60;0.90;;;;;;;4.33;49.65;101028.69;5055766;28;20028;-64